Time;durP1;ratioP1;P1;durP2;ratioP2;P2;SDS_P1;SDS_P2;PMS_P1;PMS_P2;Temp;Humidity;BMP_temperature;BMP_pressure;BME280_temperature;BME280_humidity;BME280_pressure;Samples;Min_cycle;Max_cycle;Signal;HPM_P1;HPM_P2
2022/04/01 00:00:30;;;;;;;1.75;0.40;;;2.10;99.90;;;;;;4981928;28;20351;-76
2022/04/01 00:02:56;;;;;;;0.90;0.40;;;1.50;99.90;;;;;;5014578;28;20045;-76
2022/04/01 00:05:22;;;;;;;0.75;0.30;;;2.10;99.90;;;;;;5014393;28;20096;-77
2022/04/01 00:07:48;;;;;;;1.80;0.60;;;1.80;99.90;;;;;;4997945;28;20086;-76
2022/04/01 00:10:14;;;;;;;0.68;0.40;;;1.60;99.90;;;;;;5014030;28;20407;-75
2022/04/01 00:12:41;;;;;;;3.08;0.50;;;2.40;99.90;;;;;;5013134;28;20084;-76
2022/04/01 00:15:08;;;;;;;2.22;0.40;;;1.50;99.90;;;;;;5014228;28;20487;-76
2022/04/01 00:17:34;;;;;;;0.50;0.30;;;1.50;99.90;;;;;;4980498;28;20050;-76
2022/04/01 00:20:00;;;;;;;1.92;0.50;;;1.20;99.90;;;;;;4997686;28;20053;-75
2022/04/01 00:22:25;;;;;;;2.38;0.40;;;1.30;99.90;;;;;;4996886;28;20104;-75
2022/04/01 00:24:51;;;;;;;1.10;0.40;;;2.20;99.90;;;;;;4996825;28;20513;-76
2022/04/01 00:27:17;;;;;;;2.08;0.50;;;2.50;99.90;;;;;;4996804;28;20127;-75
2022/04/01 00:29:42;;;;;;;0.98;0.40;;;1.80;99.90;;;;;;5012601;28;20046;-75
2022/04/01 00:32:08;;;;;;;0.98;0.30;;;1.60;99.90;;;;;;5014606;28;20046;-76
2022/04/01 00:34:36;;;;;;;1.05;0.40;;;1.30;99.90;;;;;;5013361;28;20483;-75
2022/04/01 00:37:03;;;;;;;1.27;0.57;;;3.10;99.90;;;;;;4996992;28;20056;-76
2022/04/01 00:39:30;;;;;;;0.68;0.38;;;1.60;99.90;;;;;;5012831;28;20054;-75
2022/04/01 00:41:57;;;;;;;3.40;0.50;;;1.50;99.90;;;;;;5014557;28;20129;-75
2022/04/01 00:44:28;;;;;;;1.88;0.40;;;1.70;99.90;;;;;;4996281;28;20053;-76
2022/04/01 00:47:06;;;;;;;0.60;0.40;;;1.70;99.90;;;;;;5014807;28;20052;-75
2022/04/01 00:49:33;;;;;;;1.88;0.32;;;1.70;99.90;;;;;;5012909;28;20058;-76
2022/04/01 00:52:02;;;;;;;1.88;0.70;;;1.70;99.90;;;;;;5013863;28;20107;-76
2022/04/01 00:54:28;;;;;;;0.73;0.35;;;1.70;99.90;;;;;;5015373;28;20050;-75
2022/04/01 00:56:54;;;;;;;1.00;0.60;;;1.70;99.90;;;;;;5017763;28;20042;-75
2022/04/01 00:59:22;;;;;;;1.00;0.40;;;3.20;99.90;;;;;;5017742;28;20057;-75
2022/04/01 01:01:49;;;;;;;1.27;0.30;;;1.50;99.90;;;;;;5016660;28;20054;-76
2022/04/01 01:04:17;;;;;;;2.17;0.50;;;1.70;99.90;;;;;;5017055;28;20103;-75
2022/04/01 01:06:49;;;;;;;0.47;0.32;;;2.80;99.90;;;;;;5018243;28;20046;-75
2022/04/01 01:09:15;;;;;;;1.55;0.32;;;1.80;99.90;;;;;;5017881;28;20042;-75
2022/04/01 01:11:42;;;;;;;1.58;0.68;;;2.80;99.90;;;;;;5017612;28;20068;-75
2022/04/01 01:14:10;;;;;;;1.25;0.40;;;3.60;99.90;;;;;;5018359;28;20050;-75
2022/04/01 01:16:40;;;;;;;1.23;0.40;;;1.30;99.90;;;;;;5017968;28;20042;-74
2022/04/01 01:19:07;;;;;;;1.17;0.50;;;2.40;99.90;;;;;;5017541;28;20042;-75
2022/04/01 01:21:33;;;;;;;2.17;0.60;;;1.80;99.90;;;;;;5015785;28;20087;-75
2022/04/01 01:24:08;;;;;;;2.00;0.60;;;2.00;99.90;;;;;;5016657;28;20056;-75
2022/04/01 01:26:36;;;;;;;1.42;0.47;;;1.90;99.90;;;;;;5016491;28;20041;-75
2022/04/01 01:29:04;;;;;;;1.48;0.47;;;2.30;99.90;;;;;;5016290;28;20393;-75
2022/04/01 01:31:30;;;;;;;1.15;0.60;;;2.80;99.90;;;;;;5018019;28;20038;-74
2022/04/01 01:33:57;;;;;;;1.98;0.50;;;1.60;99.90;;;;;;5016054;28;20057;-74
2022/04/01 01:36:26;;;;;;;0.80;0.60;;;1.90;99.90;;;;;;5016370;28;20052;-74
2022/04/01 01:38:52;;;;;;;1.88;0.50;;;2.00;99.90;;;;;;5015803;28;20121;-74
2022/04/01 01:41:18;;;;;;;3.42;0.63;;;2.50;99.90;;;;;;5015757;28;20124;-75
2022/04/01 01:43:44;;;;;;;0.70;0.40;;;2.20;99.90;;;;;;5016304;28;20478;-75
2022/04/01 01:46:10;;;;;;;3.35;0.50;;;1.70;99.90;;;;;;5016953;28;20042;-74
2022/04/01 01:48:36;;;;;;;1.98;0.55;;;2.70;99.90;;;;;;5015767;28;20112;-74
2022/04/01 01:56:31;;;;;;;4.05;0.60;;;2.10;99.90;;;;;;5015900;28;20046;-74
2022/04/01 01:58:57;;;;;;;1.75;0.50;;;2.00;99.90;;;;;;5015905;28;20104;-75
2022/04/01 02:01:23;;;;;;;2.35;0.50;;;2.50;99.90;;;;;;5014592;28;20089;-74
2022/04/01 02:03:49;;;;;;;0.90;0.50;;;2.00;99.90;;;;;;5014787;28;20054;-75
2022/04/01 02:06:15;;;;;;;0.90;0.60;;;2.00;99.90;;;;;;4998568;28;20104;-75
2022/04/01 02:08:41;;;;;;;2.60;0.50;;;2.50;99.90;;;;;;5015388;28;20430;-75
2022/04/01 02:11:08;;;;;;;4.07;0.70;;;3.40;99.90;;;;;;5015346;28;20042;-75
2022/04/01 02:13:34;;;;;;;1.33;0.50;;;3.10;99.90;;;;;;5014346;28;20091;-75
2022/04/01 02:16:00;;;;;;;1.00;0.50;;;2.90;99.90;;;;;;5013965;28;20046;-75
2022/04/01 02:18:26;;;;;;;2.47;0.50;;;2.70;99.90;;;;;;5015324;28;20108;-75
2022/04/01 02:20:52;;;;;;;1.30;0.50;;;1.90;99.90;;;;;;5014094;28;20046;-75
2022/04/01 02:23:18;;;;;;;2.03;0.35;;;3.20;99.90;;;;;;5013676;28;20413;-75
2022/04/01 02:25:44;;;;;;;1.98;0.68;;;1.80;99.90;;;;;;5014126;28;20053;-76
2022/04/01 02:28:11;;;;;;;1.10;0.50;;;2.80;99.90;;;;;;5014135;28;20057;-74
2022/04/01 02:30:37;;;;;;;1.55;0.50;;;3.50;99.90;;;;;;5015076;28;20049;-75
2022/04/01 02:33:03;;;;;;;2.45;0.60;;;2.70;99.90;;;;;;5013838;28;20048;-75
2022/04/01 02:35:29;;;;;;;2.58;0.50;;;2.10;99.90;;;;;;5013856;28;20096;-75
2022/04/01 02:37:55;;;;;;;1.40;0.43;;;2.00;99.90;;;;;;5014523;28;20081;-75
2022/04/01 02:40:22;;;;;;;1.58;0.50;;;2.80;99.90;;;;;;5015746;28;20100;-75
2022/04/01 02:42:50;;;;;;;2.35;0.82;;;2.10;99.90;;;;;;5013925;28;20050;-74
2022/04/01 02:45:16;;;;;;;2.22;0.40;;;2.70;99.90;;;;;;5013594;28;20084;-75
2022/04/01 02:47:42;;;;;;;0.93;0.35;;;3.00;99.90;;;;;;4998458;28;20049;-75
2022/04/01 02:50:08;;;;;;;2.13;0.43;;;2.60;99.90;;;;;;4997537;28;20049;-75
2022/04/01 02:52:34;;;;;;;1.70;0.50;;;2.10;99.90;;;;;;4997462;28;20045;-74
2022/04/01 02:54:59;;;;;;;0.95;0.40;;;3.30;99.90;;;;;;5013457;28;20060;-75
2022/04/01 02:57:25;;;;;;;1.13;0.40;;;2.90;99.90;;;;;;5013715;28;20038;-75
2022/04/01 02:59:52;;;;;;;2.90;0.50;;;2.50;99.90;;;;;;4959440;28;1121466;-75
2022/04/01 03:02:18;;;;;;;0.70;0.30;;;2.50;99.90;;;;;;5014220;28;20053;-77
2022/04/01 03:04:45;;;;;;;0.60;0.35;;;1.80;99.90;;;;;;5015319;28;20057;-76
2022/04/01 03:07:10;;;;;;;1.92;0.40;;;2.20;99.90;;;;;;5014443;28;20089;-76
2022/04/01 03:09:36;;;;;;;1.65;0.47;;;2.20;99.90;;;;;;5016477;28;20092;-76
2022/04/01 03:12:02;;;;;;;1.25;0.50;;;2.20;99.90;;;;;;5015924;28;20457;-76
2022/04/01 03:14:27;;;;;;;1.52;0.52;;;2.20;99.90;;;;;;5014344;28;20042;-76
2022/04/01 03:16:53;;;;;;;0.70;0.40;;;2.80;99.90;;;;;;5013262;28;20081;-76
2022/04/01 03:19:19;;;;;;;0.63;0.40;;;1.80;99.90;;;;;;5014075;28;20085;-76
2022/04/01 03:21:45;;;;;;;1.15;0.40;;;2.80;99.90;;;;;;4998036;28;20103;-76
2022/04/01 03:24:11;;;;;;;0.80;0.30;;;2.90;99.90;;;;;;5015358;28;20121;-76
2022/04/01 03:26:38;;;;;;;0.90;0.40;;;2.70;99.90;;;;;;5015637;28;20038;-76
2022/04/01 03:29:06;;;;;;;1.35;0.35;;;3.80;99.90;;;;;;5013880;28;20061;-76
2022/04/01 03:31:33;;;;;;;0.68;0.38;;;2.20;99.90;;;;;;5014972;28;20053;-76
2022/04/01 03:33:59;;;;;;;1.73;0.50;;;2.90;99.90;;;;;;4997678;28;20141;-76
2022/04/01 03:36:25;;;;;;;1.65;0.30;;;2.30;99.90;;;;;;5015655;28;20173;-77
2022/04/01 03:38:51;;;;;;;0.55;0.30;;;1.90;99.90;;;;;;5014176;28;20042;-76
2022/04/01 03:41:17;;;;;;;1.20;0.40;;;2.30;99.90;;;;;;4997660;28;20057;-76
2022/04/01 03:43:43;;;;;;;0.50;0.30;;;2.10;99.90;;;;;;5014131;28;20132;-75
2022/04/01 03:46:11;;;;;;;2.80;0.40;;;3.60;99.90;;;;;;4997481;28;20104;-76
2022/04/01 03:49:07;;;;;;;2.17;0.30;;;2.20;99.90;;;;;;4997400;28;20064;-76
2022/04/01 03:51:38;;;;;;;2.45;1.25;;;2.30;99.90;;;;;;5013717;28;20062;-77
2022/04/01 03:54:05;;;;;;;1.02;0.35;;;2.30;99.90;;;;;;5014413;28;20133;-76
2022/04/01 03:56:36;;;;;;;1.27;0.40;;;2.30;99.90;;;;;;5013280;28;20057;-76
2022/04/01 03:59:08;;;;;;;2.25;0.30;;;1.80;99.90;;;;;;5013090;28;20064;-77
2022/04/01 04:01:35;;;;;;;0.80;0.32;;;3.00;99.90;;;;;;5014402;28;20072;-76
2022/04/01 04:04:01;;;;;;;1.23;0.43;;;2.30;99.90;;;;;;5013195;28;20085;-76
2022/04/01 04:06:27;;;;;;;0.40;0.22;;;2.70;99.90;;;;;;5013311;28;20037;-76
2022/04/01 04:08:57;;;;;;;1.25;0.30;;;2.00;99.90;;;;;;5014367;28;20398;-76
2022/04/01 04:11:25;;;;;;;1.27;0.40;;;2.60;99.90;;;;;;5013345;28;20050;-76
2022/04/01 04:13:55;;;;;;;0.70;0.30;;;2.30;99.90;;;;;;5014247;28;20128;-76
2022/04/01 04:16:27;;;;;;;1.60;0.38;;;2.10;99.90;;;;;;5013346;28;20128;-75
2022/04/01 04:19:02;;;;;;;0.65;0.30;;;2.00;99.90;;;;;;4996656;28;20068;-76
2022/04/01 04:21:36;;;;;;;2.70;0.43;;;2.80;99.90;;;;;;5014066;28;20042;-76
2022/04/01 04:24:02;;;;;;;0.95;0.32;;;2.30;99.90;;;;;;5014202;28;20054;-77
2022/04/01 04:26:35;;;;;;;1.30;0.40;;;2.30;99.90;;;;;;4996605;28;20156;-76
2022/04/01 04:29:19;;;;;;;0.50;0.30;;;2.30;99.90;;;;;;5013875;28;20050;-76
2022/04/01 04:32:19;;;;;;;0.68;0.20;;;2.30;99.90;;;;;;5014066;28;20041;-77
2022/04/01 04:34:49;;;;;;;2.17;0.30;;;2.00;99.90;;;;;;5014203;28;20050;-77
2022/04/01 04:37:15;;;;;;;1.77;0.40;;;3.30;99.90;;;;;;5014027;28;20046;-77
2022/04/01 04:39:43;;;;;;;1.73;0.77;;;3.90;99.90;;;;;;5013082;28;20054;-77
2022/04/01 04:42:09;;;;;;;0.95;0.20;;;3.90;99.90;;;;;;5014083;28;20115;-77
2022/04/01 04:44:35;;;;;;;1.05;0.40;;;2.40;99.90;;;;;;5014019;28;20104;-76
2022/04/01 04:47:05;;;;;;;2.80;0.32;;;2.50;99.90;;;;;;5015915;28;20131;-76
2022/04/01 04:49:31;;;;;;;0.43;0.22;;;2.30;99.90;;;;;;5015051;28;20046;-77
2022/04/01 04:51:58;;;;;;;1.08;0.28;;;2.30;99.90;;;;;;5015141;28;20049;-76
2022/04/01 04:54:25;;;;;;;0.47;0.30;;;2.20;99.90;;;;;;5015148;28;20057;-77
2022/04/01 04:56:53;;;;;;;0.32;0.28;;;3.90;99.90;;;;;;5014410;28;20393;-78
2022/04/01 04:59:21;;;;;;;1.85;0.50;;;1.80;99.90;;;;;;5012393;28;20120;-77
2022/04/01 05:02:05;;;;;;;1.38;0.40;;;3.20;99.90;;;;;;5013836;28;20140;-77
2022/04/01 05:04:42;;;;;;;1.38;0.55;;;2.30;99.90;;;;;;5013726;28;20046;-77
2022/04/01 05:07:31;;;;;;;2.05;0.20;;;2.20;99.90;;;;;;5013039;28;20038;-77
2022/04/01 05:10:09;;;;;;;1.27;0.30;;;2.20;99.90;;;;;;5013586;28;20077;-76
2022/04/01 05:12:59;;;;;;;1.65;0.30;;;2.20;99.90;;;;;;4996693;28;20136;-77
2022/04/01 05:15:34;;;;;;;0.75;0.40;;;2.20;99.90;;;;;;5014171;28;20075;-77
2022/04/01 05:18:12;;;;;;;0.55;0.30;;;2.80;99.90;;;;;;5012306;28;20046;-77
2022/04/01 05:20:44;;;;;;;0.98;0.30;;;2.20;99.90;;;;;;5013520;28;20125;-78
2022/04/01 05:23:25;;;;;;;0.73;0.40;;;2.70;99.90;;;;;;5014164;28;20381;-77
2022/04/01 05:26:04;;;;;;;1.40;0.30;;;1.70;99.90;;;;;;5014326;28;20038;-77
2022/04/01 05:28:34;;;;;;;0.70;0.30;;;2.20;99.90;;;;;;5013540;28;20049;-77
2022/04/01 05:31:23;;;;;;;4.30;0.50;;;2.20;99.90;;;;;;4997506;28;20046;-77
2022/04/01 05:34:04;;;;;;;0.77;0.40;;;2.20;99.90;;;;;;5014225;28;20050;-77
2022/04/01 05:36:30;;;;;;;0.95;0.35;;;3.20;99.90;;;;;;5012510;28;20563;-76
2022/04/01 05:38:57;;;;;;;2.25;0.32;;;2.20;99.90;;;;;;5013368;28;20405;-77
2022/04/01 05:41:23;;;;;;;1.38;0.30;;;3.70;99.90;;;;;;5015222;28;20046;-76
2022/04/01 05:43:50;;;;;;;1.65;0.40;;;1.80;99.90;;;;;;5016946;28;20046;-77
2022/04/01 05:46:16;;;;;;;1.42;0.30;;;2.20;99.90;;;;;;5016910;28;20046;-77
2022/04/01 05:48:42;;;;;;;2.03;0.40;;;2.20;99.90;;;;;;5016770;28;20046;-78
2022/04/01 05:51:14;;;;;;;1.65;0.40;;;2.60;99.90;;;;;;5015728;28;20485;-78
2022/04/01 05:53:45;;;;;;;0.32;0.28;;;2.30;99.90;;;;;;5016749;28;20050;-79
2022/04/01 05:56:12;;;;;;;1.45;0.30;;;2.70;99.90;;;;;;5017098;28;20045;-77
2022/04/01 05:58:39;;;;;;;0.73;0.35;;;2.00;99.90;;;;;;5016346;28;20066;-76
2022/04/01 06:01:42;;;;;;;0.80;0.40;;;3.10;99.90;;;;;;5015415;28;20045;-77
2022/04/01 06:04:28;;;;;;;1.40;0.35;;;2.40;99.90;;;;;;5017373;28;20046;-78
2022/04/01 06:07:07;;;;;;;1.35;0.80;;;2.40;99.90;;;;;;5015471;28;20054;-76
2022/04/01 06:10:05;;;;;;;1.88;0.45;;;3.30;99.90;;;;;;5015737;28;20054;-79
2022/04/01 06:12:56;;;;;;;1.63;0.45;;;2.40;99.90;;;;;;5016983;28;20120;-76
2022/04/01 06:15:40;;;;;;;1.08;0.40;;;2.40;99.90;;;;;;5017152;28;20038;-76
2022/04/01 06:18:34;;;;;;;2.10;0.60;;;2.80;99.90;;;;;;5016297;28;20050;-77
2022/04/01 06:21:06;;;;;;;0.68;0.32;;;2.40;99.90;;;;;;5016009;28;20053;-78
2022/04/01 06:23:49;;;;;;;2.05;0.30;;;3.00;99.90;;;;;;5015633;28;20052;-76
2022/04/01 06:26:14;;;;;;;0.70;0.30;;;2.40;99.90;;;;;;5015444;28;20046;-77
2022/04/01 06:29:00;;;;;;;0.93;0.40;;;2.50;99.90;;;;;;4998816;28;20123;-78
2022/04/01 06:31:29;;;;;;;0.75;0.30;;;2.50;99.90;;;;;;5016059;28;20049;-76
2022/04/01 06:34:07;;;;;;;2.30;0.60;;;2.40;99.90;;;;;;5015933;28;20042;-77
2022/04/01 06:36:41;;;;;;;0.52;0.30;;;2.50;99.90;;;;;;5014480;28;20052;-79
2022/04/01 06:39:09;;;;;;;1.08;0.30;;;2.50;99.90;;;;;;5014720;28;20057;-78
2022/04/01 06:41:46;;;;;;;2.08;0.43;;;3.70;99.90;;;;;;5014781;28;20053;-77
2022/04/01 06:44:11;;;;;;;0.60;0.30;;;2.60;99.90;;;;;;5014776;28;20112;-77
2022/04/01 06:46:37;;;;;;;1.52;0.50;;;2.20;99.90;;;;;;5014509;28;20077;-78
2022/04/01 06:49:08;;;;;;;4.35;0.50;;;3.00;99.90;;;;;;5014607;28;20092;-77
2022/04/01 06:51:37;;;;;;;2.42;0.60;;;2.90;99.90;;;;;;5014414;28;20046;-77
2022/04/01 06:54:03;;;;;;;0.57;0.30;;;2.50;99.90;;;;;;5015544;28;20140;-78
2022/04/01 06:56:29;;;;;;;3.05;0.40;;;4.60;99.90;;;;;;4998857;28;20149;-77
2022/04/01 06:58:54;;;;;;;1.85;0.88;;;2.60;99.90;;;;;;4998186;28;20049;-78
2022/04/01 07:01:20;;;;;;;0.45;0.22;;;3.30;99.90;;;;;;5014544;28;20553;-78
2022/04/01 07:03:46;;;;;;;0.80;0.40;;;2.70;99.90;;;;;;5015601;28;20405;-78
2022/04/01 07:06:11;;;;;;;1.40;0.38;;;2.30;99.90;;;;;;5016192;28;20042;-80
2022/04/01 07:08:37;;;;;;;1.02;0.40;;;3.00;99.90;;;;;;5014121;28;20045;-77
2022/04/01 07:11:03;;;;;;;2.45;0.30;;;2.70;99.90;;;;;;5013825;28;20049;-78
2022/04/01 07:13:29;;;;;;;1.15;0.30;;;2.70;99.90;;;;;;5014368;28;20054;-81
2022/04/01 07:15:54;;;;;;;1.85;0.40;;;2.70;99.90;;;;;;5014266;28;20496;-78
2022/04/01 07:18:21;;;;;;;0.63;0.30;;;2.90;99.90;;;;;;5014005;28;20038;-76
2022/04/01 07:20:47;;;;;;;1.00;0.20;;;2.50;99.90;;;;;;4998083;28;20096;-79
2022/04/01 07:23:14;;;;;;;2.13;0.30;;;3.20;99.90;;;;;;5015081;28;20054;-79
2022/04/01 07:25:40;;;;;;;6.03;0.82;;;3.90;99.90;;;;;;5014771;28;20045;-78
2022/04/01 07:28:09;;;;;;;1.95;0.40;;;2.70;99.90;;;;;;5014977;28;20060;-78
2022/04/01 07:30:35;;;;;;;0.55;0.30;;;2.50;99.90;;;;;;5013754;28;20100;-77
2022/04/01 07:33:03;;;;;;;2.53;0.50;;;2.70;99.90;;;;;;4981418;28;20053;-78
2022/04/01 07:35:30;;;;;;;1.00;0.50;;;2.80;99.90;;;;;;4997345;28;20104;-79
2022/04/01 07:37:56;;;;;;;0.95;0.30;;;2.90;99.90;;;;;;4997376;28;20402;-78
2022/04/01 07:40:24;;;;;;;1.10;0.50;;;2.60;99.90;;;;;;4998341;28;20046;-77
2022/04/01 07:42:51;;;;;;;2.95;0.50;;;2.80;99.90;;;;;;5014491;28;20065;-76
2022/04/01 07:45:18;;;;;;;1.83;0.50;;;2.70;99.90;;;;;;5013807;28;20084;-77
2022/04/01 07:47:49;;;;;;;1.08;0.50;;;2.70;99.90;;;;;;5015311;28;20095;-77
2022/04/01 07:50:16;;;;;;;0.93;0.50;;;2.70;99.90;;;;;;5013963;28;20458;-79
2022/04/01 07:52:43;;;;;;;1.10;0.55;;;3.90;99.90;;;;;;4997496;28;20104;-77
2022/04/01 07:55:10;;;;;;;1.85;0.55;;;3.70;99.90;;;;;;5014558;28;20077;-77
2022/04/01 07:57:37;;;;;;;1.55;0.50;;;2.80;99.90;;;;;;5013269;28;20045;-77
2022/04/01 08:00:04;;;;;;;1.75;0.60;;;2.80;99.90;;;;;;5013416;28;20054;-77
2022/04/01 08:02:30;;;;;;;1.20;0.73;;;2.50;99.90;;;;;;5013070;28;20152;-76
2022/04/01 08:04:55;;;;;;;3.10;1.40;;;2.40;99.90;;;;;;5013993;28;20526;-77
2022/04/01 08:07:22;;;;;;;2.72;1.40;;;2.30;99.90;;;;;;5013382;28;20052;-76
2022/04/01 08:09:49;;;;;;;2.47;1.50;;;2.90;99.90;;;;;;5013350;28;20100;-77
2022/04/01 08:12:16;;;;;;;7.30;2.25;;;2.00;99.90;;;;;;4997149;28;20129;-77
2022/04/01 08:14:42;;;;;;;3.40;1.98;;;1.80;99.90;;;;;;5013293;28;20581;-77
2022/04/01 08:17:12;;;;;;;3.05;1.83;;;2.80;99.90;;;;;;5013797;28;20046;-76
2022/04/01 08:19:39;;;;;;;4.25;2.22;;;2.00;99.90;;;;;;4997337;28;20104;-77
2022/04/01 08:22:05;;;;;;;4.03;1.90;;;2.00;99.90;;;;;;4996609;28;20049;-76
2022/04/01 08:24:31;;;;;;;5.70;1.88;;;2.00;99.90;;;;;;5013742;28;20104;-74
2022/04/01 08:27:00;;;;;;;5.70;1.77;;;2.00;99.90;;;;;;4997283;28;20096;-75
2022/04/01 08:29:27;;;;;;;3.67;2.00;;;1.60;99.90;;;;;;4997251;28;20054;-76
2022/04/01 08:31:54;;;;;;;3.88;1.92;;;2.00;99.90;;;;;;4997125;28;20101;-73
2022/04/01 08:34:19;;;;;;;3.88;2.10;;;2.20;99.90;;;;;;5013498;28;20050;-76
2022/04/01 08:36:45;;;;;;;3.45;2.10;;;2.80;99.90;;;;;;4996619;28;20053;-72
2022/04/01 08:39:11;;;;;;;3.42;2.45;;;2.00;99.90;;;;;;4996836;28;20049;-72
2022/04/01 08:41:37;;;;;;;4.03;1.90;;;1.60;99.90;;;;;;5013037;28;20049;-71
2022/04/01 08:44:04;;;;;;;4.72;1.90;;;3.20;99.90;;;;;;5014523;28;20057;-72
2022/04/01 08:46:30;;;;;;;4.13;2.50;;;2.10;99.90;;;;;;5012805;28;20049;-72
2022/04/01 08:48:56;;;;;;;3.83;2.05;;;2.20;99.90;;;;;;5012835;28;20137;-71
2022/04/01 08:51:23;;;;;;;3.65;1.60;;;1.90;99.90;;;;;;5013722;28;20485;-76
2022/04/01 08:53:49;;;;;;;3.47;1.67;;;2.20;99.90;;;;;;5013928;28;20477;-74
2022/04/01 08:56:19;;;;;;;3.92;1.38;;;1.90;99.90;;;;;;5013823;28;20038;-74
2022/04/01 08:58:45;;;;;;;2.35;1.20;;;2.30;99.90;;;;;;5014190;28;20069;-72
2022/04/01 09:01:13;;;;;;;13.88;2.20;;;2.30;99.90;;;;;;5013846;28;20045;-72
2022/04/01 09:03:41;;;;;;;2.75;1.65;;;2.40;99.90;;;;;;5012563;28;20046;-74
2022/04/01 09:06:07;;;;;;;2.33;1.30;;;2.20;99.90;;;;;;5012704;28;20054;-75
2022/04/01 09:08:35;;;;;;;2.67;1.40;;;2.20;99.90;;;;;;5013783;28;20125;-77
2022/04/01 09:11:05;;;;;;;4.15;1.50;;;1.90;99.90;;;;;;5013895;28;20054;-76
2022/04/01 09:13:43;;;;;;;3.58;1.67;;;2.00;99.90;;;;;;5012782;28;20049;-79
2022/04/01 09:16:21;;;;;;;4.63;1.83;;;2.30;99.90;;;;;;5016766;28;20060;-76
2022/04/01 09:18:46;;;;;;;2.67;1.55;;;1.90;99.90;;;;;;5016965;28;20042;-76
2022/04/01 09:21:14;;;;;;;3.35;1.70;;;2.40;99.90;;;;;;5017555;28;20119;-79
2022/04/01 09:23:45;;;;;;;3.85;1.70;;;2.40;99.90;;;;;;5015966;28;20147;-75
2022/04/01 09:26:11;;;;;;;2.92;1.70;;;2.10;99.90;;;;;;5015675;28;20508;-75
2022/04/01 09:28:40;;;;;;;4.22;1.85;;;3.10;99.90;;;;;;4999027;28;20042;-75
2022/04/01 09:31:12;;;;;;;2.63;1.38;;;2.20;99.90;;;;;;5016493;28;20120;-76
2022/04/01 09:33:43;;;;;;;3.17;1.67;;;2.60;99.90;;;;;;5016286;28;20139;-76
2022/04/01 09:36:18;;;;;;;2.95;1.70;;;2.20;99.90;;;;;;5016221;28;20129;-78
2022/04/01 09:38:53;;;;;;;3.72;1.70;;;2.60;99.90;;;;;;5016255;28;20505;-79
2022/04/01 09:41:19;;;;;;;2.72;1.25;;;2.60;99.90;;;;;;5016670;28;20163;-79
2022/04/01 09:43:45;;;;;;;3.92;1.88;;;3.20;99.90;;;;;;5016012;28;20430;-79
2022/04/01 09:46:25;;;;;;;2.20;1.38;;;2.30;99.90;;;;;;5016651;28;20053;-79
2022/04/01 09:48:59;;;;;;;3.30;1.70;;;2.60;99.90;;;;;;5015298;28;20571;-81
2022/04/01 09:51:29;;;;;;;4.05;1.88;;;2.70;99.90;;;;;;5015631;28;20130;-86
2022/04/01 09:53:58;;;;;;;2.15;1.90;;;2.80;99.90;;;;;;4999230;28;20054;-82
2022/04/01 09:56:45;;;;;;;2.47;1.80;;;2.80;99.90;;;;;;5015352;28;20132;-82
2022/04/01 09:59:16;;;;;;;3.35;1.60;;;3.00;99.90;;;;;;5021320;28;20072;-85
2022/04/01 10:01:43;;;;;;;2.75;1.77;;;2.90;99.90;;;;;;5016945;28;20476;-76
2022/04/01 10:04:10;;;;;;;2.13;1.27;;;2.80;99.90;;;;;;5016395;28;20409;-78
2022/04/01 10:06:37;;;;;;;3.33;1.38;;;2.80;99.90;;;;;;5014953;28;20050;-80
2022/04/01 10:09:06;;;;;;;3.38;1.33;;;3.30;99.90;;;;;;5016058;28;20140;-78
2022/04/01 10:11:35;;;;;;;3.33;1.23;;;2.90;99.90;;;;;;5016414;28;20504;-82
2022/04/01 10:14:16;;;;;;;3.47;1.67;;;3.90;99.90;;;;;;5015937;28;20050;-81
2022/04/01 10:16:44;;;;;;;2.67;1.20;;;2.80;99.90;;;;;;5016410;28;20394;-80
2022/04/01 10:19:19;;;;;;;4.50;1.60;;;2.40;99.90;;;;;;5014935;28;20495;-80
2022/04/01 10:21:45;;;;;;;3.13;1.40;;;3.90;99.90;;;;;;5016789;28;20061;-80
2022/04/01 10:24:17;;;;;;;3.80;1.10;;;3.20;99.90;;;;;;5014723;28;20050;-79
2022/04/01 10:27:23;;;;;;;2.80;1.05;;;2.90;99.90;;;;;;5015425;28;20073;-79
2022/04/01 10:29:49;;;;;;;3.55;1.48;;;2.90;99.90;;;;;;5014836;28;20054;-81
2022/04/01 10:32:27;;;;;;;2.70;1.02;;;3.50;99.90;;;;;;5014949;28;20081;-80
2022/04/01 10:34:56;;;;;;;2.08;0.80;;;3.00;99.90;;;;;;5014250;28;20398;-79
2022/04/01 10:37:25;;;;;;;1.33;0.70;;;3.20;99.90;;;;;;5014344;28;20112;-80
2022/04/01 10:39:59;;;;;;;1.15;0.50;;;3.00;99.90;;;;;;5015456;28;20061;-80
2022/04/01 10:42:33;;;;;;;1.52;0.60;;;3.00;99.90;;;;;;5014534;28;20064;-80
2022/04/01 10:45:02;;;;;;;1.02;0.60;;;2.60;99.90;;;;;;5015032;28;20084;-79
2022/04/01 10:54:06;;;;;;;1.85;0.60;;;3.10;99.90;;;;;;5014392;28;20416;-80
2022/04/01 10:56:34;;;;;;;2.05;0.43;;;3.70;99.90;;;;;;5014938;28;20057;-80
2022/04/01 10:59:16;;;;;;;1.48;0.40;;;3.10;99.90;;;;;;5015113;28;20054;-78
2022/04/01 11:02:03;;;;;;;1.67;0.60;;;4.00;99.90;;;;;;5014188;28;20050;-81
2022/04/01 11:04:35;;;;;;;1.95;0.77;;;3.60;99.90;;;;;;5015070;28;20132;-81
2022/04/01 11:07:05;;;;;;;1.20;0.40;;;3.30;99.90;;;;;;5014920;28;20446;-80
2022/04/01 11:09:49;;;;;;;1.25;0.60;;;3.60;99.90;;;;;;5013832;28;20089;-81
2022/04/01 11:12:14;;;;;;;0.38;0.38;;;3.30;99.90;;;;;;5015651;28;20405;-84
2022/04/01 11:15:09;;;;;;;3.20;0.40;;;3.90;99.90;;;;;;5014250;28;20049;-80
2022/04/01 11:17:34;;;;;;;0.90;0.38;;;3.50;99.90;;;;;;5011967;28;20060;-80
2022/04/01 11:20:00;;;;;;;1.40;0.45;;;3.60;99.90;;;;;;5014977;28;20049;-80
2022/04/01 11:22:40;;;;;;;2.20;0.50;;;3.40;99.90;;;;;;5014852;28;20042;-80
2022/04/01 11:25:22;;;;;;;3.47;0.50;;;3.10;99.90;;;;;;5014720;28;20053;-80
2022/04/01 11:27:56;;;;;;;3.38;1.05;;;3.40;99.90;;;;;;5014404;28;20529;-80
2022/04/01 11:30:28;;;;;;;1.17;0.50;;;3.50;99.90;;;;;;5013286;28;20046;-81
2022/04/01 11:32:57;;;;;;;2.72;0.70;;;4.30;99.90;;;;;;5013504;28;20078;-76
2022/04/01 11:35:24;;;;;;;1.73;0.60;;;3.70;99.90;;;;;;5013093;28;20053;-80
2022/04/01 11:37:50;;;;;;;3.05;0.63;;;4.00;99.90;;;;;;4995483;28;20109;-80
2022/04/01 11:40:25;;;;;;;1.63;0.50;;;5.10;99.90;;;;;;5013081;28;20128;-82
2022/04/01 11:43:04;;;;;;;3.88;0.60;;;3.60;99.90;;;;;;5014169;28;20049;-78
2022/04/01 11:45:34;;;;;;;2.97;0.50;;;3.60;99.90;;;;;;5015116;28;20359;-81
2022/04/01 11:48:18;;;;;;;3.03;0.57;;;4.90;99.90;;;;;;5013172;28;20486;-80
2022/04/01 11:50:54;;;;;;;0.80;0.50;;;3.60;99.90;;;;;;5014274;28;20045;-81
2022/04/01 11:53:35;;;;;;;1.83;0.60;;;3.60;99.90;;;;;;5013943;28;20054;-82
2022/04/01 11:56:03;;;;;;;3.17;0.80;;;3.70;99.90;;;;;;5013829;28;20103;-79
2022/04/01 11:58:59;;;;;;;3.88;1.20;;;4.10;99.90;;;;;;5013927;28;20092;-79
2022/04/01 12:01:34;;;;;;;0.82;0.52;;;3.80;99.90;;;;;;5009273;28;20465;-81
2022/04/01 12:04:04;;;;;;;1.60;0.70;;;3.80;99.90;;;;;;5013016;28;20410;-81
2022/04/01 12:09:14;;;;;;;1.17;0.57;;;3.90;99.90;;;;;;5013754;28;20076;-79
2022/04/01 12:11:46;;;;;;;1.63;0.52;;;4.00;99.90;;;;;;5013503;28;20054;-84
2022/04/01 12:14:12;;;;;;;1.15;0.50;;;4.00;99.90;;;;;;5013867;28;20100;-80
2022/04/01 12:16:39;;;;;;;2.35;0.70;;;4.30;99.90;;;;;;5013731;28;20046;-81
2022/04/01 12:19:05;;;;;;;0.70;0.50;;;4.00;99.90;;;;;;5012313;28;20142;-78
2022/04/01 12:21:30;;;;;;;2.17;0.52;;;4.10;99.90;;;;;;5013113;28;20129;-83
2022/04/01 12:23:56;;;;;;;1.38;0.50;;;5.60;99.90;;;;;;5013120;28;20049;-80
2022/04/01 12:26:26;;;;;;;2.72;0.60;;;4.90;99.90;;;;;;5012175;28;20139;-77
2022/04/01 12:28:52;;;;;;;0.85;0.50;;;5.50;99.90;;;;;;5013636;28;20045;-77
2022/04/01 12:31:26;;;;;;;2.58;0.50;;;5.50;99.90;;;;;;5012216;28;20054;-78
2022/04/01 12:33:55;;;;;;;1.58;0.52;;;4.20;99.90;;;;;;5013700;28;20033;-77
2022/04/01 12:36:33;;;;;;;2.38;0.52;;;4.30;99.90;;;;;;5012022;28;20157;-76
2022/04/01 12:39:07;;;;;;;0.95;0.50;;;4.30;99.90;;;;;;5014052;28;20096;-77
2022/04/01 12:41:33;;;;;;;1.17;0.50;;;4.30;99.90;;;;;;5014366;28;20038;-78
2022/04/01 12:44:02;;;;;;;0.70;0.40;;;4.30;99.90;;;;;;5012078;28;20529;-78
2022/04/01 12:46:34;;;;;;;1.95;0.60;;;4.40;99.90;;;;;;5012145;28;20042;-77
2022/04/01 12:49:09;;;;;;;1.25;0.47;;;4.40;99.90;;;;;;5013215;28;20062;-78
2022/04/01 12:51:36;;;;;;;4.20;0.60;;;4.50;99.90;;;;;;5020124;28;20054;-79
2022/04/01 12:54:04;;;;;;;2.25;0.90;;;4.50;99.90;;;;;;5017965;28;20089;-78
2022/04/01 12:56:35;;;;;;;3.70;0.52;;;4.50;99.90;;;;;;5016550;28;20054;-75
2022/04/01 12:59:09;;;;;;;1.35;0.40;;;5.00;99.90;;;;;;5000040;28;20054;-80
2022/04/01 13:01:37;;;;;;;1.00;0.60;;;4.50;99.90;;;;;;5017382;28;20050;-77
2022/04/01 13:04:05;;;;;;;1.92;0.47;;;4.40;99.90;;;;;;5015679;28;20081;-81
2022/04/01 13:06:31;;;;;;;2.25;0.90;;;4.50;99.90;;;;;;5016994;28;20068;-80
2022/04/01 13:09:09;;;;;;;2.15;0.43;;;4.50;99.90;;;;;;5015788;28;20037;-79
2022/04/01 13:11:42;;;;;;;1.05;0.50;;;5.10;99.90;;;;;;5017687;28;20046;-81
2022/04/01 13:14:26;;;;;;;0.85;0.50;;;4.60;99.90;;;;;;5016485;28;20054;-79
2022/04/01 13:16:57;;;;;;;4.80;0.65;;;5.10;99.90;;;;;;5017016;28;20593;-78
2022/04/01 13:19:33;;;;;;;2.55;0.47;;;4.70;99.90;;;;;;5016657;28;20086;-80
2022/04/01 13:22:04;;;;;;;0.60;0.38;;;4.70;99.90;;;;;;5016572;28;20065;-82
2022/04/01 13:24:42;;;;;;;0.70;0.40;;;4.70;99.90;;;;;;5016433;28;20106;-78
2022/04/01 13:27:11;;;;;;;0.55;0.30;;;4.70;99.90;;;;;;5016840;28;20077;-81